createdAt,value
2023-05-13T00:01:21.542Z,94006.06
2023-05-13T00:03:48.409Z,94012.25
2023-05-13T00:06:15.442Z,94002.31
2023-05-13T00:08:42.374Z,93999.88
2023-05-13T00:11:09.125Z,93998.72
2023-05-13T00:13:35.843Z,94007.50
2023-05-13T00:16:03.312Z,94006.38
2023-05-13T00:18:30.317Z,93997.66
2023-05-13T00:20:57.193Z,93995.69
2023-05-13T00:23:23.939Z,93999.22
2023-05-13T00:25:50.740Z,94002.41
2023-05-13T00:28:17.529Z,94003.63
2023-05-13T00:30:45.779Z,93998.88
2023-05-13T00:33:12.732Z,94003.06
2023-05-13T00:35:39.654Z,94000.81
2023-05-13T00:38:07.202Z,93991.66
2023-05-13T00:40:37.561Z,93984.69
2023-05-13T00:43:04.326Z,93993.41
2023-05-13T00:45:31.349Z,93998.72
2023-05-13T00:47:59.130Z,93995.53
2023-05-13T00:50:26.124Z,93991.13
2023-05-13T00:52:52.990Z,93993.31
2023-05-13T00:55:19.821Z,93992.81
2023-05-13T00:57:46.639Z,93995.75
2023-05-13T01:00:14.310Z,94004.91
2023-05-13T01:03:16.411Z,94002.31
2023-05-13T01:06:05.041Z,94004.25
2023-05-13T01:08:49.836Z,94005.84
2023-05-13T01:11:22.070Z,94010.81
2023-05-13T01:13:52.088Z,94001.88
2023-05-13T01:16:21.327Z,94005.63
2023-05-13T01:18:57.678Z,94009.88
2023-05-13T01:21:28.202Z,94008.50
2023-05-13T01:23:56.147Z,94006.91
2023-05-13T01:26:23.646Z,94010.66
2023-05-13T01:28:50.580Z,94007.50
2023-05-13T01:31:17.974Z,94005.22
2023-05-13T01:33:44.900Z,94011.56
2023-05-13T01:36:11.834Z,94014.69
2023-05-13T01:38:39.880Z,94008.38
2023-05-13T01:41:06.767Z,94005.66
2023-05-13T01:43:33.568Z,93999.81
2023-05-13T01:46:01.483Z,94012.56
2023-05-13T01:48:28.227Z,93999.13
2023-05-13T01:50:55.733Z,94015.38
2023-05-13T01:53:22.527Z,94014.94
2023-05-13T01:55:49.312Z,94001.19
2023-05-13T01:58:16.072Z,94011.91
2023-05-13T02:00:42.958Z,94005.34
2023-05-13T02:03:09.758Z,94000.16
2023-05-13T02:05:36.577Z,94002.31
2023-05-13T02:08:03.355Z,94005.28
2023-05-13T02:10:30.077Z,94005.50
2023-05-13T02:12:57.227Z,94003.78
2023-05-13T02:15:23.967Z,94002.84
2023-05-13T02:17:51.360Z,94007.06
2023-05-13T02:20:18.274Z,94012.97
2023-05-13T02:22:45.038Z,94007.47
2023-05-13T02:25:11.769Z,94007.78
2023-05-13T02:27:38.500Z,94009.47
2023-05-13T02:30:06.597Z,94013.97
2023-05-13T02:32:33.423Z,94009.63
2023-05-13T02:35:00.197Z,94014.28
2023-05-13T02:37:27.421Z,94010.34
2023-05-13T02:39:54.240Z,94011.00
2023-05-13T02:42:21.235Z,94005.84
2023-05-13T02:44:48.784Z,93988.44
2023-05-13T02:47:15.617Z,94015.00
2023-05-13T02:49:42.413Z,94015.06
2023-05-13T02:52:09.075Z,94010.06
2023-05-13T02:54:35.832Z,94011.88
2023-05-13T02:57:02.552Z,94008.69
2023-05-13T02:59:29.251Z,94010.47
2023-05-13T03:01:55.982Z,94020.63
2023-05-13T03:04:22.725Z,94016.69
2023-05-13T03:06:49.531Z,94023.88
2023-05-13T03:09:16.473Z,94020.31
2023-05-13T03:11:43.193Z,94023.09
2023-05-13T03:14:09.897Z,94021.91
2023-05-13T03:16:36.626Z,94030.53
2023-05-13T03:19:03.460Z,94030.53
2023-05-13T03:21:30.310Z,94024.38
2023-05-13T03:23:57.069Z,94029.94
2023-05-13T03:26:23.809Z,94030.34
2023-05-13T03:28:50.541Z,94029.13
2023-05-13T03:31:17.316Z,94030.97
2023-05-13T03:33:44.281Z,94023.00
2023-05-13T03:36:10.883Z,94026.75
2023-05-13T03:38:37.689Z,94025.19
2023-05-13T03:41:04.430Z,94025.78
2023-05-13T03:43:31.158Z,94026.78
2023-05-13T03:45:57.841Z,94041.72
2023-05-13T03:48:24.574Z,94043.56
2023-05-13T03:50:53.154Z,94043.13
2023-05-13T03:53:19.945Z,94039.34
2023-05-13T03:55:46.680Z,94048.09
2023-05-13T03:58:15.065Z,94047.09
2023-05-13T04:00:42.988Z,94042.56
2023-05-13T04:03:10.574Z,94031.63
2023-05-13T04:05:37.462Z,94047.88
2023-05-13T04:08:04.422Z,94051.06
2023-05-13T04:10:31.221Z,94053.84
2023-05-13T04:12:57.902Z,94052.91
2023-05-13T04:15:24.641Z,94059.09
2023-05-13T04:17:52.626Z,94054.13
2023-05-13T04:20:19.988Z,94062.28
2023-05-13T04:22:46.842Z,94068.44
2023-05-13T04:25:13.570Z,94057.50
2023-05-13T04:27:40.273Z,94044.19
2023-05-13T04:30:07.731Z,94069.44
2023-05-13T04:32:34.900Z,94064.25
2023-05-13T04:35:01.637Z,94063.25
2023-05-13T04:37:28.277Z,94063.41
2023-05-13T04:39:54.929Z,94053.47
2023-05-13T04:42:21.547Z,94059.22
2023-05-13T04:44:48.176Z,94052.63
2023-05-13T04:47:14.754Z,94056.16
2023-05-13T04:49:41.489Z,94064.88
2023-05-13T04:52:11.793Z,94064.72
2023-05-13T04:54:39.433Z,94067.34
2023-05-13T04:57:06.482Z,94058.44
2023-05-13T04:59:33.230Z,94066.72
2023-05-13T05:02:00.036Z,94065.25
2023-05-13T05:04:27.191Z,94063.88
2023-05-13T05:06:54.103Z,94068.69
2023-05-13T05:09:20.757Z,94068.94
2023-05-13T05:11:47.417Z,94053.47
2023-05-13T05:14:13.982Z,94073.94
2023-05-13T05:16:40.584Z,94078.28
2023-05-13T05:19:07.314Z,94077.84
2023-05-13T05:21:34.011Z,94077.38
2023-05-13T05:24:01.991Z,94074.56
2023-05-13T05:26:28.833Z,94073.09
2023-05-13T05:28:55.440Z,94078.91
2023-05-13T05:31:22.143Z,94079.34
2023-05-13T05:33:48.979Z,94080.03
2023-05-13T05:36:15.591Z,94081.44
2023-05-13T05:38:42.320Z,94077.19
2023-05-13T05:41:09.102Z,94052.06
2023-05-13T05:43:36.000Z,94092.31
2023-05-13T05:46:02.724Z,94085.50
2023-05-13T05:48:29.556Z,94084.38
2023-05-13T05:50:56.883Z,94088.69
2023-05-13T05:53:23.524Z,94089.00
2023-05-13T05:55:51.655Z,94072.56
2023-05-13T05:58:19.794Z,94090.16
2023-05-13T06:00:46.477Z,94092.91
2023-05-13T06:03:14.221Z,94089.63
2023-05-13T06:05:41.132Z,94091.34
2023-05-13T06:08:07.906Z,94089.44
2023-05-13T06:10:35.416Z,94091.97
2023-05-13T06:13:02.485Z,94097.31
2023-05-13T06:15:29.191Z,94096.97
2023-05-13T06:17:56.273Z,94103.28
2023-05-13T06:20:23.389Z,94099.53
2023-05-13T06:22:50.252Z,94096.88
2023-05-13T06:25:17.081Z,94101.78
2023-05-13T06:27:43.822Z,94100.38
2023-05-13T06:30:10.949Z,94101.84
2023-05-13T06:32:39.436Z,94103.59
2023-05-13T06:35:09.634Z,94101.00
2023-05-13T06:37:36.271Z,94106.19
2023-05-13T06:40:03.110Z,94109.97
2023-05-13T06:42:29.983Z,94100.25
2023-05-13T06:44:56.785Z,94101.16
2023-05-13T06:47:24.091Z,94103.75
2023-05-13T06:49:50.892Z,94106.41
2023-05-13T06:52:17.677Z,94100.81
2023-05-13T06:54:44.271Z,94096.66
2023-05-13T06:57:10.940Z,94098.53
2023-05-13T06:59:37.684Z,94091.13
2023-05-13T07:02:04.708Z,94093.09
2023-05-13T07:04:31.494Z,94099.97
2023-05-13T07:06:58.312Z,94095.81
2023-05-13T07:09:25.182Z,94093.34
2023-05-13T07:11:52.260Z,94094.66
2023-05-13T07:14:20.078Z,94094.53
2023-05-13T07:16:46.842Z,94093.69
2023-05-13T07:19:13.657Z,94090.69
2023-05-13T07:21:40.375Z,94097.81
2023-05-13T07:24:07.199Z,94093.38
2023-05-13T07:26:34.031Z,94090.47
2023-05-13T07:29:00.821Z,94092.56
2023-05-13T07:31:27.920Z,94094.06
2023-05-13T07:33:54.782Z,94094.50
2023-05-13T07:36:22.521Z,94096.75
2023-05-13T07:38:49.496Z,94097.91
2023-05-13T07:41:16.455Z,94105.66
2023-05-13T07:43:43.258Z,94094.41
2023-05-13T07:46:10.027Z,94094.88
2023-05-13T07:48:36.791Z,94099.69
2023-05-13T07:51:03.800Z,94091.94
2023-05-13T07:53:30.558Z,94085.00
2023-05-13T07:55:57.657Z,94092.56
2023-05-13T07:58:24.462Z,94089.94
2023-05-13T08:00:51.215Z,94095.38
2023-05-13T08:03:18.055Z,94085.47
2023-05-13T08:05:45.024Z,94077.84
2023-05-13T08:08:12.015Z,94088.03
2023-05-13T08:10:38.763Z,94078.56
2023-05-13T08:13:05.583Z,94075.09
2023-05-13T08:15:32.636Z,94077.38
2023-05-13T08:17:59.589Z,94084.34
2023-05-13T08:20:30.141Z,94078.81
2023-05-13T08:22:58.355Z,94080.38
2023-05-13T08:25:25.500Z,94078.56
2023-05-13T08:27:52.239Z,94077.69
2023-05-13T08:30:19.114Z,94080.28
2023-05-13T08:32:46.448Z,94080.88
2023-05-13T08:35:13.367Z,94079.50
2023-05-13T08:37:40.110Z,94084.06
2023-05-13T08:40:07.553Z,94077.59
2023-05-13T08:42:38.274Z,94080.22
2023-05-13T08:45:05.879Z,94078.09
2023-05-13T08:47:38.688Z,94075.72
2023-05-13T08:50:06.745Z,94069.28
2023-05-13T08:52:33.654Z,94079.66
2023-05-13T08:55:01.360Z,94078.91
2023-05-13T08:57:28.506Z,94077.81
2023-05-13T08:59:55.342Z,94075.13
2023-05-13T09:02:23.335Z,94070.72
2023-05-13T09:04:53.835Z,94072.06
2023-05-13T09:07:20.588Z,94073.09
2023-05-13T09:09:47.721Z,94070.41
2023-05-13T09:12:43.163Z,94072.00
2023-05-13T09:15:11.713Z,94063.94
2023-05-13T09:17:45.882Z,94071.50
2023-05-13T09:20:13.914Z,94073.38
2023-05-13T09:22:42.427Z,94064.97
2023-05-13T09:25:12.222Z,94070.50
2023-05-13T09:27:44.125Z,94063.09
2023-05-13T09:30:11.752Z,94063.91
2023-05-13T09:32:42.754Z,94055.75
2023-05-13T09:35:19.130Z,94063.88
2023-05-13T09:37:47.471Z,94060.53
2023-05-13T09:40:16.151Z,94056.00
2023-05-13T09:42:46.614Z,94053.09
2023-05-13T09:45:14.648Z,94058.41
2023-05-13T09:47:41.939Z,94059.19
2023-05-13T09:50:10.192Z,94053.09
2023-05-13T09:52:37.752Z,94056.00
2023-05-13T09:55:06.733Z,94057.25
2023-05-13T09:57:33.922Z,94049.94
2023-05-13T10:00:02.197Z,94057.09
2023-05-13T10:02:29.218Z,94051.03
2023-05-13T10:04:57.010Z,94059.47
2023-05-13T10:07:25.750Z,94052.63
2023-05-13T10:09:54.644Z,94057.00
2023-05-13T10:12:22.845Z,94051.13
2023-05-13T10:14:52.033Z,94053.38
2023-05-13T10:17:20.782Z,94055.09
2023-05-13T10:19:49.979Z,94051.16
2023-05-13T10:22:41.207Z,94059.03
2023-05-13T10:25:08.884Z,94054.97
2023-05-13T10:27:35.587Z,94057.50
2023-05-13T10:30:05.137Z,94056.03
2023-05-13T10:32:31.984Z,94050.81
2023-05-13T10:35:12.197Z,94062.81
2023-05-13T10:37:44.981Z,94061.88
2023-05-13T10:40:34.936Z,94053.94
2023-05-13T10:43:21.809Z,94064.53
2023-05-13T10:45:52.722Z,94068.56
2023-05-13T10:48:19.729Z,94056.81
2023-05-13T10:50:57.149Z,94064.63
2023-05-13T10:53:25.542Z,94053.56
2023-05-13T10:55:57.970Z,94064.59
2023-05-13T10:58:32.768Z,94056.97
2023-05-13T11:01:26.313Z,94051.94
2023-05-13T11:03:55.192Z,94058.03
2023-05-13T11:06:30.340Z,94062.59
2023-05-13T11:08:57.198Z,94055.63
2023-05-13T11:11:28.887Z,94057.25
2023-05-13T11:14:14.388Z,94055.09
2023-05-13T11:16:50.261Z,94059.56
2023-05-13T11:19:28.429Z,94058.53
2023-05-13T11:22:05.322Z,94055.13
2023-05-13T11:24:32.120Z,94056.91
2023-05-13T11:26:59.992Z,94050.94
2023-05-13T11:29:34.800Z,94056.53
2023-05-13T11:32:03.634Z,94055.00
2023-05-13T11:34:31.031Z,94045.59
2023-05-13T11:37:08.845Z,94056.19
2023-05-13T11:39:36.372Z,94062.78
2023-05-13T11:42:07.639Z,94062.03
2023-05-13T11:44:35.148Z,94074.81
2023-05-13T11:47:06.226Z,94066.97
2023-05-13T11:49:43.640Z,94061.94
2023-05-13T11:52:15.282Z,94074.13
2023-05-13T11:54:53.677Z,94066.72
2023-05-13T11:57:25.816Z,94075.00
2023-05-13T11:59:53.605Z,94070.88
2023-05-13T12:02:24.967Z,94074.06
2023-05-13T12:04:53.265Z,94070.06
2023-05-13T12:07:24.301Z,94066.56
2023-05-13T12:09:51.772Z,94071.56
2023-05-13T12:12:19.423Z,94068.31
2023-05-13T12:14:47.075Z,94077.53
2023-05-13T12:17:14.428Z,94075.38
2023-05-13T12:19:41.496Z,94069.91
2023-05-13T12:22:09.025Z,94071.50
2023-05-13T12:24:35.790Z,94070.88
2023-05-13T12:27:09.461Z,94075.06
2023-05-13T12:29:42.682Z,94075.94
2023-05-13T12:32:09.895Z,94079.56
2023-05-13T12:34:36.671Z,94068.78
2023-05-13T12:37:11.813Z,94085.00
2023-05-13T12:39:39.594Z,94071.84
2023-05-13T12:42:06.480Z,94077.31
2023-05-13T12:44:33.641Z,94070.47
2023-05-13T12:47:02.348Z,94067.34
2023-05-13T12:49:29.124Z,94070.75
2023-05-13T12:51:56.943Z,94071.28
2023-05-13T12:54:23.742Z,94074.69
2023-05-13T12:56:50.511Z,94073.13
2023-05-13T12:59:19.181Z,94060.94
2023-05-13T13:01:48.334Z,94073.63
2023-05-13T13:04:16.973Z,94063.88
2023-05-13T13:06:44.005Z,94068.66
2023-05-13T13:09:10.912Z,94073.13
2023-05-13T13:11:37.743Z,94074.69
2023-05-13T13:14:04.522Z,94074.16
2023-05-13T13:16:31.985Z,94053.94
2023-05-13T13:19:01.710Z,94066.56
2023-05-13T13:21:28.816Z,94067.53
2023-05-13T13:23:55.657Z,94063.63
2023-05-13T13:26:23.263Z,94063.53
2023-05-13T13:28:49.994Z,94059.16
2023-05-13T13:31:16.796Z,94053.53
2023-05-13T13:33:43.489Z,94067.91
2023-05-13T13:36:10.223Z,94063.09
2023-05-13T13:38:37.020Z,94058.47
2023-05-13T13:41:03.795Z,94057.75
2023-05-13T13:43:30.709Z,94061.34
2023-05-13T13:45:57.450Z,94055.94
2023-05-13T13:48:24.203Z,94067.72
2023-05-13T13:50:52.802Z,94071.19
2023-05-13T13:53:19.801Z,94068.09
2023-05-13T13:55:46.605Z,94064.19
2023-05-13T13:58:14.575Z,94072.59
2023-05-13T14:00:41.359Z,94063.41
2023-05-13T14:03:08.201Z,94058.09
2023-05-13T14:05:35.355Z,94072.56
2023-05-13T14:08:02.187Z,94059.94
2023-05-13T14:10:28.942Z,94069.84
2023-05-13T14:12:55.672Z,94072.56
2023-05-13T14:15:22.494Z,94064.63
2023-05-13T14:17:49.288Z,94076.50
2023-05-13T14:20:16.281Z,94074.78
2023-05-13T14:22:42.978Z,94069.28
2023-05-13T14:25:10.086Z,94078.53
2023-05-13T14:27:36.847Z,94080.25
2023-05-13T14:30:04.911Z,94076.56
2023-05-13T14:32:31.681Z,94083.72
2023-05-13T14:34:58.643Z,94081.91
2023-05-13T14:37:25.477Z,94095.84
2023-05-13T14:39:52.235Z,94102.09
2023-05-13T14:42:19.466Z,94095.31
2023-05-13T14:44:46.258Z,94083.06
2023-05-13T14:47:13.110Z,94108.28
2023-05-13T14:49:39.786Z,94096.25
2023-05-13T14:52:06.590Z,94099.44
2023-05-13T14:54:35.890Z,94097.31
2023-05-13T14:57:06.549Z,94095.09
2023-05-13T14:59:33.978Z,94108.19
2023-05-13T15:02:02.397Z,94106.69
2023-05-13T15:04:29.230Z,94114.25
2023-05-13T15:06:56.500Z,94106.28
2023-05-13T15:09:23.268Z,94119.31
2023-05-13T15:11:50.036Z,94111.66
2023-05-13T15:14:18.027Z,94117.19
2023-05-13T15:16:44.966Z,94114.03
2023-05-13T15:19:11.850Z,94115.84
2023-05-13T15:21:38.773Z,94106.59
2023-05-13T15:24:05.774Z,94107.66
2023-05-13T15:26:32.622Z,94110.31
2023-05-13T15:28:59.351Z,94115.84
2023-05-13T15:31:26.293Z,94112.69
2023-05-13T15:33:53.195Z,94115.00
2023-05-13T15:36:19.993Z,94116.56
2023-05-13T15:38:46.726Z,94117.78
2023-05-13T15:41:13.412Z,94117.94
2023-05-13T15:43:40.101Z,94116.03
2023-05-13T15:46:06.991Z,94118.38
2023-05-13T15:48:33.748Z,94116.06
2023-05-13T15:51:00.866Z,94122.38
2023-05-13T15:53:27.591Z,94112.13
2023-05-13T15:55:54.309Z,94117.75
2023-05-13T15:58:21.053Z,94119.94
2023-05-13T16:00:47.770Z,94117.88
2023-05-13T16:03:15.352Z,94122.84
2023-05-13T16:05:42.401Z,94120.38
2023-05-13T16:08:09.132Z,94115.69
2023-05-13T16:10:35.924Z,94111.78
2023-05-13T16:13:02.755Z,94123.88
2023-05-13T16:15:29.428Z,94124.47
2023-05-13T16:17:56.140Z,94127.69
2023-05-13T16:20:23.084Z,94118.97
2023-05-13T16:22:50.002Z,94119.88
2023-05-13T16:25:17.359Z,94114.22
2023-05-13T16:27:44.087Z,94120.25
2023-05-13T16:30:11.554Z,94123.91
2023-05-13T16:32:38.632Z,94133.31
2023-05-13T16:35:05.925Z,94126.81
2023-05-13T16:37:35.223Z,94130.84
2023-05-13T16:40:01.899Z,94130.59
2023-05-13T16:42:28.710Z,94128.94
2023-05-13T16:44:56.017Z,94130.19
2023-05-13T16:47:22.704Z,94124.88
2023-05-13T16:49:50.314Z,94130.50
2023-05-13T16:52:17.119Z,94132.66
2023-05-13T16:54:44.767Z,94130.09
2023-05-13T16:57:11.645Z,94146.09
2023-05-13T16:59:38.427Z,94143.72
2023-05-13T17:02:05.476Z,94140.13
2023-05-13T17:04:32.479Z,94158.44
2023-05-13T17:06:59.730Z,94148.34
2023-05-13T17:09:26.828Z,94162.63
2023-05-13T17:11:54.543Z,94162.28
2023-05-13T17:14:22.031Z,94154.84
2023-05-13T17:16:48.984Z,94165.72
2023-05-13T17:19:15.898Z,94169.75
2023-05-13T17:21:42.988Z,94166.91
2023-05-13T17:24:09.672Z,94173.03
2023-05-13T17:26:38.627Z,94173.50
2023-05-13T17:29:06.088Z,94170.41
2023-05-13T17:31:33.240Z,94168.59
2023-05-13T17:33:59.939Z,94169.13
2023-05-13T17:36:26.620Z,94162.16
2023-05-13T17:38:53.481Z,94172.38
2023-05-13T17:41:20.230Z,94168.28
2023-05-13T17:43:47.087Z,94173.06
2023-05-13T17:46:13.793Z,94173.75
2023-05-13T17:48:40.683Z,94177.84
2023-05-13T17:51:07.352Z,94183.09
2023-05-13T17:53:35.026Z,94190.22
2023-05-13T17:56:02.026Z,94192.09
2023-05-13T17:58:28.687Z,94187.53
2023-05-13T18:00:55.547Z,94186.50
2023-05-13T18:03:22.332Z,94191.72
2023-05-13T18:05:49.177Z,94186.34
2023-05-13T18:08:16.179Z,94190.84
2023-05-13T18:10:43.077Z,94198.47
2023-05-13T18:13:09.985Z,94200.19
2023-05-13T18:15:36.722Z,94196.09
2023-05-13T18:18:04.003Z,94197.66
2023-05-13T18:20:31.891Z,94185.63
2023-05-13T18:22:58.656Z,94191.66
2023-05-13T18:25:25.687Z,94191.81
2023-05-13T18:27:52.452Z,94201.63
2023-05-13T18:30:20.323Z,94194.69
2023-05-13T18:32:48.187Z,94204.72
2023-05-13T18:35:16.211Z,94207.88
2023-05-13T18:37:43.109Z,94185.78
2023-05-13T18:40:10.218Z,94211.84
2023-05-13T18:42:36.902Z,94205.09
2023-05-13T18:45:03.755Z,94208.41
2023-05-13T18:47:30.567Z,94209.34
2023-05-13T18:49:57.304Z,94213.31
2023-05-13T18:52:24.144Z,94219.22
2023-05-13T18:54:50.852Z,94217.88
2023-05-13T18:57:18.006Z,94222.84
2023-05-13T18:59:44.655Z,94223.88
2023-05-13T19:02:11.650Z,94228.53
2023-05-13T19:04:38.333Z,94228.75
2023-05-13T19:07:05.348Z,94232.66
2023-05-13T19:09:33.447Z,94230.34
2023-05-13T19:12:00.160Z,94231.06
2023-05-13T19:14:26.881Z,94226.06
2023-05-13T19:16:53.547Z,94234.56
2023-05-13T19:19:20.221Z,94242.53
2023-05-13T19:21:46.986Z,94243.25
2023-05-13T19:24:13.745Z,94254.59
2023-05-13T19:26:40.551Z,94254.94
2023-05-13T19:29:07.237Z,94251.16
2023-05-13T19:31:33.916Z,94247.19
2023-05-13T19:34:01.479Z,94244.38
2023-05-13T19:36:28.319Z,94246.66
2023-05-13T19:38:55.377Z,94256.13
2023-05-13T19:41:22.577Z,94252.78
2023-05-13T19:43:49.367Z,94254.38
2023-05-13T19:46:16.074Z,94255.31
2023-05-13T19:48:42.882Z,94256.13
2023-05-13T19:51:09.505Z,94255.97
2023-05-13T19:53:36.479Z,94254.19
2023-05-13T19:56:03.807Z,94255.78
2023-05-13T19:58:30.535Z,94249.44
2023-05-13T20:00:57.169Z,94251.34
2023-05-13T20:03:23.974Z,94243.31
2023-05-13T20:05:51.368Z,94239.22
2023-05-13T20:08:18.055Z,94239.59
2023-05-13T20:10:44.790Z,94242.88
2023-05-13T20:13:11.432Z,94240.84
2023-05-13T20:15:38.174Z,94229.97
2023-05-13T20:18:04.895Z,94241.06
2023-05-13T20:20:31.563Z,94230.66
2023-05-13T20:22:58.145Z,94226.47
2023-05-13T20:25:24.800Z,94229.31
2023-05-13T20:27:51.375Z,94233.88
2023-05-13T20:30:18.389Z,94234.88
2023-05-13T20:32:45.199Z,94230.56
2023-05-13T20:35:11.950Z,94229.75
2023-05-13T20:37:38.612Z,94230.47
2023-05-13T20:40:05.903Z,94232.38
2023-05-13T20:42:33.571Z,94232.06
2023-05-13T20:45:00.245Z,94229.91
2023-05-13T20:47:27.010Z,94234.19
2023-05-13T20:49:53.714Z,94231.91
2023-05-13T20:52:20.588Z,94226.97
2023-05-13T20:54:47.312Z,94230.09
2023-05-13T20:57:13.926Z,94228.41
2023-05-13T20:59:40.649Z,94227.75
2023-05-13T21:02:07.709Z,94224.66
2023-05-13T21:04:34.429Z,94225.94
2023-05-13T21:07:01.137Z,94230.59
2023-05-13T21:09:27.796Z,94227.06
2023-05-13T21:11:54.396Z,94232.59
2023-05-13T21:14:21.415Z,94225.91
2023-05-13T21:16:47.992Z,94223.31
2023-05-13T21:19:22.091Z,94228.97
2023-05-13T21:21:48.774Z,94240.13
2023-05-13T21:24:19.024Z,94229.56
2023-05-13T21:26:46.345Z,94235.09
2023-05-13T21:29:13.251Z,94229.19
2023-05-13T21:31:39.914Z,94223.31
2023-05-13T21:34:06.676Z,94232.56
2023-05-13T21:36:33.907Z,94234.38
2023-05-13T21:39:00.627Z,94228.94
2023-05-13T21:41:27.318Z,94236.19
2023-05-13T21:43:53.979Z,94230.97
2023-05-13T21:46:20.734Z,94227.72
2023-05-13T21:48:47.497Z,94237.31
2023-05-13T21:51:14.545Z,94230.53
2023-05-13T21:53:41.123Z,94232.91
2023-05-13T21:56:07.869Z,94230.53
2023-05-13T21:58:34.462Z,94229.38
2023-05-13T22:01:01.366Z,94230.25
2023-05-13T22:03:28.154Z,94233.88
2023-05-13T22:05:54.745Z,94221.09
2023-05-13T22:08:22.106Z,94218.25
2023-05-13T22:10:48.789Z,94219.50
2023-05-13T22:13:15.739Z,94214.28
2023-05-13T22:15:42.426Z,94206.47
2023-05-13T22:18:09.412Z,94215.81
2023-05-13T22:20:36.261Z,94217.88
2023-05-13T22:23:02.883Z,94218.19
2023-05-13T22:25:29.620Z,94217.97
2023-05-13T22:27:56.235Z,94206.00
2023-05-13T22:30:23.205Z,94208.22
2023-05-13T22:32:51.781Z,94207.88
2023-05-13T22:35:18.467Z,94212.47
2023-05-13T22:37:45.307Z,94210.44
2023-05-13T22:40:12.444Z,94204.50
2023-05-13T22:42:39.105Z,94207.19
2023-05-13T22:45:06.647Z,94208.28
2023-05-13T22:47:34.619Z,94213.41
2023-05-13T22:50:01.210Z,94211.31
2023-05-13T22:52:27.826Z,94219.59
2023-05-13T22:54:54.462Z,94215.03
2023-05-13T22:57:21.372Z,94210.16
2023-05-13T22:59:48.282Z,94206.13
2023-05-13T23:02:14.938Z,94208.34
2023-05-13T23:04:41.585Z,94203.75
2023-05-13T23:07:08.371Z,94197.38
2023-05-13T23:09:35.061Z,94192.78
2023-05-13T23:12:01.820Z,94197.38
2023-05-13T23:14:30.169Z,94198.91
2023-05-13T23:16:57.007Z,94194.56
2023-05-13T23:19:27.381Z,94189.38
2023-05-13T23:21:54.133Z,94195.00
2023-05-13T23:24:21.088Z,94188.34
2023-05-13T23:26:48.805Z,94180.75
2023-05-13T23:29:15.551Z,94183.72
2023-05-13T23:31:42.450Z,94179.97
2023-05-13T23:34:09.586Z,94168.50
2023-05-13T23:36:36.300Z,94170.44
2023-05-13T23:39:03.105Z,94162.50
2023-05-13T23:41:29.918Z,94159.47
2023-05-13T23:43:56.642Z,94156.00
2023-05-13T23:46:23.550Z,94142.53
2023-05-13T23:48:50.369Z,94152.31
2023-05-13T23:51:17.120Z,94143.75
2023-05-13T23:53:43.846Z,94141.56
2023-05-13T23:56:10.555Z,94140.97
2023-05-13T23:58:37.275Z,94136.75
